createdAt,value
2023-03-27T00:02:03.626Z,0.65
2023-03-27T00:04:30.161Z,0.85
2023-03-27T00:06:57.204Z,1.00
2023-03-27T00:09:23.698Z,0.73
2023-03-27T00:11:50.261Z,0.65
2023-03-27T00:14:16.811Z,0.68
2023-03-27T00:16:43.254Z,0.90
2023-03-27T00:19:10.027Z,1.00
2023-03-27T00:21:36.452Z,0.82
2023-03-27T00:24:02.973Z,0.70
2023-03-27T00:26:30.625Z,0.60
2023-03-27T00:28:57.294Z,0.80
2023-03-27T00:31:23.902Z,0.45
2023-03-27T00:33:50.476Z,0.80
2023-03-27T00:36:17.002Z,0.70
2023-03-27T00:38:43.782Z,1.15
2023-03-27T00:41:10.878Z,0.90
2023-03-27T00:43:43.528Z,0.70
2023-03-27T00:46:15.984Z,0.73
2023-03-27T00:48:46.988Z,0.93
2023-03-27T00:51:15.342Z,0.70
2023-03-27T00:53:42.907Z,0.50
2023-03-27T00:56:10.423Z,0.68
2023-03-27T00:58:42.321Z,0.60
2023-03-27T01:01:13.249Z,0.85
2023-03-27T01:03:44.124Z,0.60
2023-03-27T01:06:13.922Z,0.38
2023-03-27T01:08:43.637Z,0.70
2023-03-27T01:11:25.632Z,0.57
2023-03-27T01:14:29.378Z,0.68
2023-03-27T01:17:08.381Z,0.93
2023-03-27T01:19:53.434Z,0.80
2023-03-27T01:22:44.629Z,0.73
2023-03-27T01:25:26.473Z,0.40
2023-03-27T01:28:15.502Z,0.88
2023-03-27T01:30:49.752Z,0.90
2023-03-27T01:33:58.926Z,1.08
2023-03-27T01:36:34.804Z,0.60
2023-03-27T01:39:19.545Z,0.52
2023-03-27T01:42:18.419Z,0.60
2023-03-27T01:44:50.970Z,0.60
2023-03-27T01:47:31.600Z,0.50
2023-03-27T01:50:10.733Z,0.50
2023-03-27T01:52:41.962Z,0.55
2023-03-27T01:55:19.422Z,0.38
2023-03-27T01:57:53.416Z,0.70
2023-03-27T02:00:24.100Z,0.40
2023-03-27T02:03:15.604Z,0.40
2023-03-27T02:05:58.516Z,0.95
2023-03-27T02:08:42.524Z,0.52
2023-03-27T02:11:15.366Z,0.60
2023-03-27T02:13:48.620Z,0.63
2023-03-27T02:16:25.072Z,0.50
2023-03-27T02:18:59.244Z,0.65
2023-03-27T02:21:26.344Z,0.47
2023-03-27T02:23:53.252Z,0.30
2023-03-27T02:26:20.189Z,0.63
2023-03-27T02:29:05.230Z,0.70
2023-03-27T02:31:51.733Z,0.50
2023-03-27T02:34:42.542Z,0.40
2023-03-27T02:37:34.042Z,0.50
2023-03-27T02:40:31.182Z,0.82
2023-03-27T02:43:36.654Z,0.32
2023-03-27T02:46:38.627Z,0.50
2023-03-27T02:49:15.857Z,0.40
2023-03-27T02:51:51.686Z,0.70
2023-03-27T02:54:25.034Z,0.30
2023-03-27T02:56:58.939Z,0.60
2023-03-27T02:59:44.951Z,0.32
2023-03-27T03:02:20.907Z,0.50
2023-03-27T03:05:02.061Z,0.45
2023-03-27T03:07:34.631Z,0.30
2023-03-27T03:10:01.467Z,0.55
2023-03-27T03:12:31.203Z,0.68
2023-03-27T03:14:57.658Z,0.60
2023-03-27T03:17:24.282Z,0.73
2023-03-27T03:19:51.573Z,0.50
2023-03-27T03:22:18.044Z,0.50
2023-03-27T03:24:44.933Z,0.43
2023-03-27T03:27:14.887Z,0.60
2023-03-27T03:30:04.916Z,0.50
2023-03-27T03:32:39.478Z,0.68
2023-03-27T03:35:08.553Z,0.70
2023-03-27T03:37:38.993Z,0.50
2023-03-27T03:40:12.117Z,0.60
2023-03-27T03:42:51.110Z,0.98
2023-03-27T03:45:20.997Z,0.70
2023-03-27T03:47:47.721Z,0.57
2023-03-27T03:50:14.983Z,0.60
2023-03-27T03:52:41.717Z,0.40
2023-03-27T03:55:11.969Z,0.35
2023-03-27T03:57:38.787Z,0.60
2023-03-27T04:00:13.516Z,0.40
2023-03-27T04:02:52.205Z,0.40
2023-03-27T04:05:19.382Z,0.40
2023-03-27T04:07:49.979Z,0.70
2023-03-27T04:10:45.356Z,0.65
2023-03-27T04:13:35.409Z,0.85
2023-03-27T04:16:13.270Z,0.57
2023-03-27T04:18:44.059Z,0.75
2023-03-27T04:21:17.992Z,0.50
2023-03-27T04:23:48.068Z,0.77
2023-03-27T04:26:19.230Z,0.40
2023-03-27T04:29:10.254Z,0.43
2023-03-27T04:32:06.051Z,0.60
2023-03-27T04:34:42.030Z,1.13
2023-03-27T04:37:23.263Z,0.65
2023-03-27T04:42:45.949Z,0.60
2023-03-27T04:45:17.075Z,0.73
2023-03-27T04:47:46.431Z,0.93
2023-03-27T04:50:13.198Z,0.70
2023-03-27T04:52:39.802Z,0.60
2023-03-27T04:55:08.243Z,0.70
2023-03-27T04:57:35.029Z,0.57
2023-03-27T05:00:02.299Z,0.45
2023-03-27T05:02:55.980Z,0.63
2023-03-27T05:05:29.312Z,0.55
2023-03-27T05:07:56.344Z,0.80
2023-03-27T05:10:24.831Z,0.70
2023-03-27T05:12:53.306Z,0.40
2023-03-27T05:15:21.528Z,0.60
2023-03-27T05:17:54.985Z,0.70
2023-03-27T05:20:25.550Z,0.57
2023-03-27T05:22:56.318Z,0.80
2023-03-27T05:25:27.905Z,0.70
2023-03-27T05:27:55.547Z,0.93
2023-03-27T05:30:27.180Z,0.93
2023-03-27T05:33:09.160Z,0.60
2023-03-27T05:35:36.361Z,0.70
2023-03-27T05:38:02.805Z,0.52
2023-03-27T05:40:32.934Z,0.75
2023-03-27T05:42:59.759Z,0.57
2023-03-27T05:45:29.248Z,0.68
2023-03-27T05:47:58.321Z,0.65
2023-03-27T05:50:29.314Z,0.60
2023-03-27T05:53:03.897Z,0.68
2023-03-27T05:55:39.524Z,0.80
2023-03-27T05:58:09.561Z,0.65
2023-03-27T06:00:36.578Z,0.75
2023-03-27T06:03:04.339Z,0.50
2023-03-27T06:05:50.712Z,0.75
2023-03-27T06:08:18.465Z,0.70
2023-03-27T06:10:45.995Z,0.63
2023-03-27T06:13:24.073Z,0.80
2023-03-27T06:16:12.591Z,0.38
2023-03-27T06:18:41.942Z,0.47
2023-03-27T06:21:10.378Z,0.65
2023-03-27T06:23:37.694Z,0.60
2023-03-27T06:26:09.830Z,0.88
2023-03-27T06:28:36.763Z,0.77
2023-03-27T06:31:03.973Z,0.93
2023-03-27T06:33:39.846Z,1.00
2023-03-27T06:36:10.126Z,0.60
2023-03-27T06:38:40.506Z,0.77
2023-03-27T06:41:07.013Z,0.95
2023-03-27T06:44:02.658Z,1.15
2023-03-27T06:46:52.205Z,0.90
2023-03-27T06:49:24.170Z,0.88
2023-03-27T06:51:51.192Z,0.80
2023-03-27T06:54:20.685Z,1.23
2023-03-27T06:56:51.088Z,0.82
2023-03-27T07:01:52.339Z,0.95
2023-03-27T07:04:39.289Z,1.05
2023-03-27T07:07:15.993Z,0.90
2023-03-27T07:09:44.960Z,0.77
2023-03-27T07:12:14.219Z,1.70
2023-03-27T07:14:42.918Z,0.90
2023-03-27T07:17:09.674Z,0.98
2023-03-27T07:19:50.569Z,0.82
2023-03-27T07:22:19.769Z,1.02
2023-03-27T07:24:46.299Z,1.00
2023-03-27T07:27:14.484Z,0.70
2023-03-27T07:29:42.090Z,0.77
2023-03-27T07:32:19.348Z,0.70
2023-03-27T07:34:52.778Z,0.50
2023-03-27T07:37:58.295Z,0.57
2023-03-27T07:40:50.537Z,0.80
2023-03-27T07:43:39.464Z,0.40
2023-03-27T07:46:07.199Z,0.47
2023-03-27T07:48:35.804Z,0.50
2023-03-27T07:53:41.398Z,0.70
2023-03-27T07:56:16.765Z,0.40
2023-03-27T07:58:47.223Z,0.50
2023-03-27T08:01:18.838Z,0.35
2023-03-27T08:03:48.497Z,0.60
2023-03-27T08:06:16.386Z,0.40
2023-03-27T08:08:42.935Z,0.75
2023-03-27T08:11:23.276Z,0.50
2023-03-27T08:13:59.176Z,0.50
2023-03-27T08:16:29.633Z,0.63
2023-03-27T08:18:58.643Z,0.50
2023-03-27T08:23:52.780Z,0.50
2023-03-27T08:26:39.625Z,0.50
2023-03-27T08:29:09.160Z,0.68
2023-03-27T08:31:37.069Z,0.73
2023-03-27T08:34:05.215Z,0.55
2023-03-27T08:36:46.517Z,0.65
2023-03-27T08:41:55.139Z,0.52
2023-03-27T08:44:31.787Z,0.57
2023-03-27T08:47:31.204Z,0.50
2023-03-27T08:50:12.218Z,0.45
2023-03-27T08:52:48.646Z,0.60
2023-03-27T08:55:38.439Z,0.70
2023-03-27T08:58:21.652Z,0.60
2023-03-27T09:01:02.023Z,0.45
2023-03-27T09:03:38.829Z,0.50
2023-03-27T09:06:24.830Z,0.80
2023-03-27T09:09:09.206Z,0.80
2023-03-27T09:11:41.775Z,0.40
2023-03-27T09:14:18.754Z,0.75
2023-03-27T09:16:50.138Z,1.33
2023-03-27T09:19:46.422Z,0.70
2023-03-27T09:22:28.370Z,0.50
2023-03-27T09:25:34.740Z,0.75
2023-03-27T09:28:23.901Z,0.50
2023-03-27T09:30:59.327Z,0.40
2023-03-27T09:33:33.534Z,0.73
2023-03-27T09:36:00.748Z,0.50
2023-03-27T09:38:44.539Z,0.47
2023-03-27T09:41:23.416Z,0.40
2023-03-27T09:44:06.114Z,0.63
2023-03-27T09:46:38.222Z,0.57
2023-03-27T09:49:12.638Z,0.50
2023-03-27T09:51:48.732Z,0.55
2023-03-27T09:54:53.193Z,0.52
2023-03-27T09:57:32.105Z,0.45
2023-03-27T10:00:15.824Z,0.60
2023-03-27T10:02:49.396Z,1.08
2023-03-27T10:05:22.207Z,0.47
2023-03-27T10:07:53.784Z,0.73
2023-03-27T10:10:45.100Z,0.40
2023-03-27T10:13:44.698Z,0.60
2023-03-27T10:18:58.000Z,0.70
2023-03-27T10:21:33.304Z,0.50
2023-03-27T10:24:19.032Z,0.80
2023-03-27T10:27:12.006Z,0.65
2023-03-27T10:29:46.612Z,0.65
2023-03-27T10:32:15.299Z,0.98
2023-03-27T10:34:58.240Z,0.50
2023-03-27T10:37:51.553Z,0.70
2023-03-27T10:40:55.210Z,0.75
2023-03-27T10:43:45.266Z,0.70
2023-03-27T10:46:19.512Z,0.80
2023-03-27T10:49:02.576Z,0.70
2023-03-27T10:51:59.668Z,0.80
2023-03-27T10:55:12.302Z,0.60
2023-03-27T10:57:39.800Z,0.88
2023-03-27T11:00:32.771Z,0.60
2023-03-27T11:03:28.725Z,0.95
2023-03-27T11:06:05.065Z,0.85
2023-03-27T11:09:05.841Z,0.50
2023-03-27T11:11:40.874Z,0.63
2023-03-27T11:14:16.729Z,0.60
2023-03-27T11:16:51.704Z,0.70
2023-03-27T11:20:07.339Z,0.60
2023-03-27T11:23:11.877Z,0.43
2023-03-27T11:25:51.528Z,0.88
2023-03-27T11:28:25.160Z,0.60
2023-03-27T11:30:57.765Z,0.93
2023-03-27T11:33:36.944Z,0.85
2023-03-27T11:36:40.047Z,0.30
2023-03-27T11:39:49.256Z,0.52
2023-03-27T11:42:29.300Z,0.43
2023-03-27T11:44:56.897Z,0.55
2023-03-27T11:47:53.202Z,0.60
2023-03-27T11:50:32.113Z,0.32
2023-03-27T11:53:24.208Z,0.60
2023-03-27T11:56:32.235Z,0.30
2023-03-27T11:59:28.811Z,0.70
2023-03-27T12:02:21.527Z,0.75
2023-03-27T12:04:59.497Z,0.77
2023-03-27T12:08:13.371Z,1.17
2023-03-27T12:10:46.771Z,0.73
2023-03-27T12:13:40.725Z,0.77
2023-03-27T12:16:22.287Z,1.02
2023-03-27T12:19:28.354Z,0.50
2023-03-27T12:22:41.721Z,0.57
2023-03-27T12:25:42.098Z,0.57
2023-03-27T12:29:23.425Z,0.25
2023-03-27T12:32:27.003Z,0.40
2023-03-27T12:34:57.087Z,0.47
2023-03-27T12:37:31.215Z,0.40
2023-03-27T12:40:00.611Z,0.40
2023-03-27T12:42:44.020Z,0.57
2023-03-27T12:45:18.249Z,0.60
2023-03-27T12:48:10.526Z,0.40
2023-03-27T12:50:45.304Z,0.70
2023-03-27T12:53:38.956Z,0.30
2023-03-27T12:56:13.523Z,0.47
2023-03-27T12:58:41.305Z,0.50
2023-03-27T13:01:11.020Z,0.43
2023-03-27T13:04:19.659Z,0.77
2023-03-27T13:07:09.037Z,0.60
2023-03-27T13:10:41.461Z,0.80
2023-03-27T13:13:23.610Z,0.63
2023-03-27T13:16:07.026Z,0.60
2023-03-27T13:18:59.346Z,0.55
2023-03-27T13:22:00.161Z,0.52
2023-03-27T13:24:32.808Z,0.57
2023-03-27T13:27:05.707Z,0.65
2023-03-27T13:29:36.326Z,0.60
2023-03-27T13:32:34.296Z,0.50
2023-03-27T13:35:21.964Z,0.30
2023-03-27T13:37:48.536Z,0.60
2023-03-27T13:40:27.731Z,0.50
2023-03-27T13:43:26.079Z,0.60
2023-03-27T13:46:05.047Z,0.63
2023-03-27T13:49:08.037Z,0.30
2023-03-27T13:51:51.667Z,0.73
2023-03-27T13:54:33.436Z,0.47
2023-03-27T13:57:12.993Z,0.38
2023-03-27T14:00:13.468Z,0.40
2023-03-27T14:03:15.261Z,0.47
2023-03-27T14:06:11.934Z,0.38
2023-03-27T14:09:06.096Z,0.65
2023-03-27T14:12:05.537Z,0.47
2023-03-27T14:15:10.637Z,0.60
2023-03-27T14:18:08.295Z,0.40
2023-03-27T14:20:45.873Z,0.50
2023-03-27T14:23:23.434Z,0.63
2023-03-27T14:26:05.643Z,0.47
2023-03-27T14:28:54.233Z,0.68
2023-03-27T14:31:43.997Z,0.52
2023-03-27T14:34:35.200Z,0.63
2023-03-27T14:37:32.423Z,0.45
2023-03-27T14:40:20.965Z,0.22
2023-03-27T14:42:51.091Z,0.98
2023-03-27T14:45:20.530Z,0.47
2023-03-27T14:47:59.680Z,0.70
2023-03-27T14:50:31.592Z,0.70
2023-03-27T14:52:59.164Z,0.45
2023-03-27T14:55:52.841Z,0.43
2023-03-27T14:58:46.552Z,0.55
2023-03-27T15:01:17.130Z,0.50
2023-03-27T15:03:51.580Z,0.80
2023-03-27T15:06:23.157Z,0.65
2023-03-27T15:08:55.990Z,0.73
2023-03-27T15:11:47.702Z,0.80
2023-03-27T15:14:27.270Z,1.05
2023-03-27T15:17:06.728Z,0.65
2023-03-27T15:19:45.587Z,0.60
2023-03-27T15:22:18.846Z,0.70
2023-03-27T15:25:17.840Z,0.52
2023-03-27T15:27:57.332Z,0.30
2023-03-27T15:30:43.472Z,0.80
2023-03-27T15:33:20.182Z,0.57
2023-03-27T15:35:51.765Z,0.40
2023-03-27T15:38:25.497Z,0.45
2023-03-27T15:41:01.321Z,0.50
2023-03-27T15:43:29.591Z,0.40
2023-03-27T15:46:24.721Z,0.40
2023-03-27T15:48:56.443Z,0.50
2023-03-27T15:51:22.858Z,0.47
2023-03-27T15:53:59.069Z,0.65
2023-03-27T15:56:39.955Z,0.75
2023-03-27T15:59:12.853Z,0.45
2023-03-27T16:01:42.066Z,0.80
2023-03-27T16:04:17.361Z,0.50
2023-03-27T16:06:51.117Z,0.68
2023-03-27T16:09:25.696Z,0.60
2023-03-27T16:11:54.299Z,0.68
2023-03-27T16:14:33.213Z,0.77
2023-03-27T16:17:29.088Z,0.35
2023-03-27T16:19:58.483Z,0.63
2023-03-27T16:22:34.524Z,0.90
2023-03-27T16:25:02.879Z,1.13
2023-03-27T16:27:39.037Z,0.47
2023-03-27T16:30:08.638Z,0.63
2023-03-27T16:32:36.165Z,0.63
2023-03-27T16:35:02.679Z,0.98
2023-03-27T16:37:29.309Z,0.40
2023-03-27T16:39:55.994Z,0.60
2023-03-27T16:42:26.099Z,0.40
2023-03-27T16:44:53.390Z,0.63
2023-03-27T16:47:22.976Z,0.50
2023-03-27T16:50:03.598Z,0.43
2023-03-27T16:52:36.330Z,0.50
2023-03-27T16:55:04.596Z,0.52
2023-03-27T16:57:33.045Z,0.45
2023-03-27T16:59:59.473Z,0.90
2023-03-27T17:02:26.614Z,0.82
2023-03-27T17:04:53.110Z,0.75
2023-03-27T17:07:19.741Z,1.40
2023-03-27T17:09:46.347Z,0.82
2023-03-27T17:12:12.818Z,0.60
2023-03-27T17:14:39.373Z,0.80
2023-03-27T17:17:05.856Z,3.25
2023-03-27T17:19:32.418Z,2.45
2023-03-27T17:21:58.896Z,0.80
2023-03-27T17:24:25.508Z,5.25
2023-03-27T17:26:51.977Z,1.08
2023-03-27T17:29:18.873Z,0.77
2023-03-27T17:31:45.990Z,1.00
2023-03-27T17:34:12.567Z,0.85
2023-03-27T17:36:47.098Z,0.80
2023-03-27T17:39:16.176Z,0.63
2023-03-27T17:41:42.656Z,1.00
2023-03-27T17:44:11.278Z,1.05
2023-03-27T17:46:37.918Z,0.70
2023-03-27T17:49:05.093Z,0.90
2023-03-27T17:51:31.735Z,0.45
2023-03-27T17:53:59.083Z,0.70
2023-03-27T17:56:25.589Z,1.27
2023-03-27T17:58:51.990Z,0.52
2023-03-27T18:01:20.850Z,1.10
2023-03-27T18:03:48.500Z,1.88
2023-03-27T18:06:17.437Z,2.15
2023-03-27T18:08:44.992Z,4.03
2023-03-27T18:11:13.521Z,2.58
2023-03-27T18:13:40.135Z,1.27
2023-03-27T18:16:10.237Z,2.90
2023-03-27T18:18:39.019Z,2.30
2023-03-27T18:21:07.436Z,1.10
2023-03-27T18:23:35.154Z,1.73
2023-03-27T18:26:06.330Z,2.45
2023-03-27T18:28:33.368Z,1.50
2023-03-27T18:31:06.173Z,2.67
2023-03-27T18:33:32.744Z,1.10
2023-03-27T18:35:59.600Z,0.90
2023-03-27T18:38:28.312Z,0.73
2023-03-27T18:40:59.602Z,0.75
2023-03-27T18:43:26.522Z,2.83
2023-03-27T18:46:01.542Z,2.63
2023-03-27T18:48:29.630Z,1.67
2023-03-27T18:50:58.214Z,2.70
2023-03-27T18:53:25.311Z,4.25
2023-03-27T18:55:52.917Z,7.75
2023-03-27T18:58:24.295Z,3.55
2023-03-27T19:00:51.212Z,8.90
2023-03-27T19:03:19.895Z,9.70
2023-03-27T19:05:51.549Z,3.38
2023-03-27T19:08:19.641Z,3.38
2023-03-27T19:10:46.206Z,3.35
2023-03-27T19:13:22.295Z,7.28
2023-03-27T19:16:15.290Z,3.97
2023-03-27T19:19:01.012Z,2.72
2023-03-27T19:21:39.588Z,2.50
2023-03-27T19:24:14.782Z,2.08
2023-03-27T19:26:43.851Z,1.35
2023-03-27T19:29:11.111Z,1.27
2023-03-27T19:31:37.692Z,0.73
2023-03-27T19:34:04.631Z,1.83
2023-03-27T19:36:32.255Z,1.10
2023-03-27T19:38:59.177Z,1.15
2023-03-27T19:41:26.049Z,1.15
2023-03-27T19:43:52.647Z,0.80
2023-03-27T19:46:19.200Z,0.80
2023-03-27T19:48:48.798Z,0.90
2023-03-27T19:51:42.910Z,1.00
2023-03-27T19:54:11.487Z,0.80
2023-03-27T19:56:39.184Z,1.25
2023-03-27T19:59:06.796Z,0.90
2023-03-27T20:01:33.388Z,0.93
2023-03-27T20:04:00.908Z,1.02
2023-03-27T20:06:28.805Z,0.93
2023-03-27T20:08:57.730Z,1.23
2023-03-27T20:11:26.952Z,2.33
2023-03-27T20:16:26.278Z,1.80
2023-03-27T20:19:03.655Z,1.05
2023-03-27T20:21:33.570Z,0.80
2023-03-27T20:24:00.146Z,1.40
2023-03-27T20:26:32.296Z,0.95
2023-03-27T20:29:08.347Z,0.70
2023-03-27T20:31:35.846Z,0.90
2023-03-27T20:34:02.773Z,0.47
2023-03-27T20:36:29.231Z,0.90
2023-03-27T20:38:56.456Z,1.00
2023-03-27T20:41:23.440Z,0.88
2023-03-27T20:43:50.829Z,1.63
2023-03-27T20:46:17.993Z,1.17
2023-03-27T20:48:54.500Z,0.70
2023-03-27T20:51:23.993Z,1.58
2023-03-27T20:53:54.272Z,1.10
2023-03-27T20:56:22.253Z,1.55
2023-03-27T20:58:49.389Z,0.90
2023-03-27T21:01:19.269Z,1.17
2023-03-27T21:03:49.391Z,0.90
2023-03-27T21:06:18.773Z,1.25
2023-03-27T21:11:12.824Z,0.73
2023-03-27T21:13:39.748Z,1.00
2023-03-27T21:16:07.813Z,0.90
2023-03-27T21:18:34.266Z,1.15
2023-03-27T21:21:00.987Z,1.52
2023-03-27T21:23:27.651Z,1.00
2023-03-27T21:25:55.262Z,2.03
2023-03-27T21:28:21.685Z,1.38
2023-03-27T21:30:48.755Z,1.10
2023-03-27T21:33:16.386Z,1.25
2023-03-27T21:35:46.763Z,1.13
2023-03-27T21:38:15.572Z,1.02
2023-03-27T21:40:42.202Z,0.88
2023-03-27T21:43:08.945Z,0.82
2023-03-27T21:45:36.089Z,0.90
2023-03-27T21:48:03.443Z,0.98
2023-03-27T21:50:30.284Z,0.90
2023-03-27T21:52:57.215Z,1.23
2023-03-27T21:55:23.932Z,0.75
2023-03-27T21:57:51.820Z,0.82
2023-03-27T22:00:18.663Z,0.77
2023-03-27T22:02:45.295Z,1.10
2023-03-27T22:05:11.714Z,1.00
2023-03-27T22:07:38.182Z,0.85
2023-03-27T22:10:06.568Z,0.80
2023-03-27T22:12:36.938Z,0.80
2023-03-27T22:15:04.600Z,0.70
2023-03-27T22:17:31.088Z,0.93
2023-03-27T22:19:59.014Z,0.73
2023-03-27T22:22:25.598Z,1.15
2023-03-27T22:24:52.153Z,1.00
2023-03-27T22:27:19.035Z,0.70
2023-03-27T22:29:45.579Z,0.70
2023-03-27T22:32:12.035Z,0.73
2023-03-27T22:34:38.566Z,1.20
2023-03-27T22:37:06.453Z,1.00
2023-03-27T22:39:32.975Z,0.88
2023-03-27T22:41:59.478Z,0.68
2023-03-27T22:44:26.196Z,0.77
2023-03-27T22:46:52.956Z,0.75
2023-03-27T22:49:19.546Z,1.13
2023-03-27T22:51:46.045Z,0.88
2023-03-27T22:54:12.515Z,1.05
2023-03-27T22:56:38.990Z,1.10
2023-03-27T22:59:06.073Z,0.82
2023-03-27T23:01:32.750Z,0.73
2023-03-27T23:03:59.380Z,1.05
2023-03-27T23:06:26.232Z,1.17
2023-03-27T23:08:52.825Z,1.17
2023-03-27T23:11:19.880Z,0.93
2023-03-27T23:13:46.903Z,0.93
2023-03-27T23:16:13.490Z,1.13
2023-03-27T23:18:40.258Z,1.30
2023-03-27T23:21:12.440Z,0.88
2023-03-27T23:23:40.416Z,0.95
2023-03-27T23:26:08.539Z,0.85
2023-03-27T23:28:37.722Z,0.70
2023-03-27T23:31:06.664Z,1.67
2023-03-27T23:33:38.992Z,0.80
2023-03-27T23:36:10.764Z,1.17
2023-03-27T23:38:37.746Z,1.02
2023-03-27T23:41:05.698Z,0.80
2023-03-27T23:43:32.540Z,1.23
2023-03-27T23:45:59.747Z,0.88
2023-03-27T23:48:28.455Z,1.15
2023-03-27T23:50:55.997Z,1.17
2023-03-27T23:53:25.703Z,0.90
2023-03-27T23:55:52.882Z,0.93
2023-03-27T23:58:20.019Z,1.27
